sensor_id;sensor_type;location;lat;lon;timestamp;P1;durP1;ratioP1;P2;durP2;ratioP2
9737;SDS011;4908;47.446;13.900;2023-11-21T00:01:14;5.73;;;4.90;;
9737;SDS011;4908;47.446;13.900;2023-11-21T00:03:42;5.30;;;4.33;;
9737;SDS011;4908;47.446;13.900;2023-11-21T00:06:09;5.33;;;4.80;;
9737;SDS011;4908;47.446;13.900;2023-11-21T00:08:36;4.97;;;4.57;;
9737;SDS011;4908;47.446;13.900;2023-11-21T00:11:05;5.10;;;4.70;;
9737;SDS011;4908;47.446;13.900;2023-11-21T00:13:32;5.40;;;5.00;;
9737;SDS011;4908;47.446;13.900;2023-11-21T00:16:00;5.10;;;4.60;;
9737;SDS011;4908;47.446;13.900;2023-11-21T00:18:27;5.70;;;5.20;;
9737;SDS011;4908;47.446;13.900;2023-11-21T00:20:54;5.37;;;4.93;;
9737;SDS011;4908;47.446;13.900;2023-11-21T00:23:24;4.83;;;4.43;;
9737;SDS011;4908;47.446;13.900;2023-11-21T00:25:51;5.53;;;4.53;;
9737;SDS011;4908;47.446;13.900;2023-11-21T00:28:19;4.60;;;4.30;;
9737;SDS011;4908;47.446;13.900;2023-11-21T00:30:46;4.83;;;4.37;;
9737;SDS011;4908;47.446;13.900;2023-11-21T00:33:13;4.50;;;4.00;;
9737;SDS011;4908;47.446;13.900;2023-11-21T00:35:40;4.37;;;4.07;;
9737;SDS011;4908;47.446;13.900;2023-11-21T00:38:07;4.67;;;4.27;;
9737;SDS011;4908;47.446;13.900;2023-11-21T00:40:34;4.60;;;4.30;;
9737;SDS011;4908;47.446;13.900;2023-11-21T00:43:03;5.10;;;4.60;;
9737;SDS011;4908;47.446;13.900;2023-11-21T00:45:32;5.00;;;4.60;;
9737;SDS011;4908;47.446;13.900;2023-11-21T00:47:59;4.83;;;4.43;;
9737;SDS011;4908;47.446;13.900;2023-11-21T00:50:26;5.10;;;4.53;;
9737;SDS011;4908;47.446;13.900;2023-11-21T00:52:53;4.80;;;4.40;;
9737;SDS011;4908;47.446;13.900;2023-11-21T00:55:20;4.20;;;3.90;;
9737;SDS011;4908;47.446;13.900;2023-11-21T00:57:47;3.83;;;3.53;;
9737;SDS011;4908;47.446;13.900;2023-11-21T01:00:14;3.00;;;2.80;;
9737;SDS011;4908;47.446;13.900;2023-11-21T01:02:44;3.40;;;3.10;;
9737;SDS011;4908;47.446;13.900;2023-11-21T01:05:11;4.10;;;3.80;;
9737;SDS011;4908;47.446;13.900;2023-11-21T01:07:39;4.10;;;3.70;;
9737;SDS011;4908;47.446;13.900;2023-11-21T01:10:06;4.07;;;3.80;;
9737;SDS011;4908;47.446;13.900;2023-11-21T01:12:34;3.97;;;3.67;;
9737;SDS011;4908;47.446;13.900;2023-11-21T01:15:03;3.80;;;3.50;;
9737;SDS011;4908;47.446;13.900;2023-11-21T01:17:32;3.77;;;3.50;;
9737;SDS011;4908;47.446;13.900;2023-11-21T01:20:02;3.53;;;3.23;;
9737;SDS011;4908;47.446;13.900;2023-11-21T01:22:31;4.57;;;3.30;;
9737;SDS011;4908;47.446;13.900;2023-11-21T01:24:58;3.47;;;3.27;;
9737;SDS011;4908;47.446;13.900;2023-11-21T01:27:25;3.63;;;3.40;;
9737;SDS011;4908;47.446;13.900;2023-11-21T01:29:53;3.20;;;3.00;;
9737;SDS011;4908;47.446;13.900;2023-11-21T01:32:20;3.50;;;3.20;;
9737;SDS011;4908;47.446;13.900;2023-11-21T01:34:47;3.53;;;3.23;;
9737;SDS011;4908;47.446;13.900;2023-11-21T01:37:16;3.33;;;3.10;;
9737;SDS011;4908;47.446;13.900;2023-11-21T01:39:43;3.20;;;3.00;;
9737;SDS011;4908;47.446;13.900;2023-11-21T01:42:11;3.33;;;3.10;;
9737;SDS011;4908;47.446;13.900;2023-11-21T01:44:38;3.83;;;3.53;;
9737;SDS011;4908;47.446;13.900;2023-11-21T01:47:06;3.30;;;3.00;;
9737;SDS011;4908;47.446;13.900;2023-11-21T01:49:34;3.80;;;3.60;;
9737;SDS011;4908;47.446;13.900;2023-11-21T01:52:02;3.73;;;3.53;;
9737;SDS011;4908;47.446;13.900;2023-11-21T01:54:32;3.90;;;3.57;;
9737;SDS011;4908;47.446;13.900;2023-11-21T01:57:02;4.07;;;3.23;;
9737;SDS011;4908;47.446;13.900;2023-11-21T01:59:33;3.30;;;3.10;;
9737;SDS011;4908;47.446;13.900;2023-11-21T02:02:02;3.07;;;2.87;;
9737;SDS011;4908;47.446;13.900;2023-11-21T02:04:30;3.60;;;3.30;;
9737;SDS011;4908;47.446;13.900;2023-11-21T02:06:58;3.63;;;3.33;;
9737;SDS011;4908;47.446;13.900;2023-11-21T02:09:25;3.20;;;3.00;;
9737;SDS011;4908;47.446;13.900;2023-11-21T02:11:56;2.70;;;2.30;;
9737;SDS011;4908;47.446;13.900;2023-11-21T02:14:24;3.47;;;3.17;;
9737;SDS011;4908;47.446;13.900;2023-11-21T02:16:53;4.90;;;3.13;;
9737;SDS011;4908;47.446;13.900;2023-11-21T02:19:21;4.37;;;4.07;;
9737;SDS011;4908;47.446;13.900;2023-11-21T02:21:51;3.93;;;3.63;;
9737;SDS011;4908;47.446;13.900;2023-11-21T02:24:20;3.70;;;3.40;;
9737;SDS011;4908;47.446;13.900;2023-11-21T02:26:48;3.50;;;3.20;;
9737;SDS011;4908;47.446;13.900;2023-11-21T02:29:17;3.73;;;3.43;;
9737;SDS011;4908;47.446;13.900;2023-11-21T02:31:47;3.40;;;3.20;;
9737;SDS011;4908;47.446;13.900;2023-11-21T02:34:14;3.70;;;3.40;;
9737;SDS011;4908;47.446;13.900;2023-11-21T02:36:42;3.20;;;2.90;;
9737;SDS011;4908;47.446;13.900;2023-11-21T02:39:09;3.13;;;2.93;;
9737;SDS011;4908;47.446;13.900;2023-11-21T02:44:06;2.70;;;2.50;;
9737;SDS011;4908;47.446;13.900;2023-11-21T02:46:34;3.03;;;2.83;;
9737;SDS011;4908;47.446;13.900;2023-11-21T02:49:01;3.10;;;2.80;;
9737;SDS011;4908;47.446;13.900;2023-11-21T02:51:28;2.60;;;2.40;;
9737;SDS011;4908;47.446;13.900;2023-11-21T02:53:56;2.83;;;2.73;;
9737;SDS011;4908;47.446;13.900;2023-11-21T02:56:26;2.77;;;2.57;;
9737;SDS011;4908;47.446;13.900;2023-11-21T02:58:55;3.33;;;3.07;;
9737;SDS011;4908;47.446;13.900;2023-11-21T03:01:23;2.60;;;2.40;;
9737;SDS011;4908;47.446;13.900;2023-11-21T03:03:50;3.13;;;2.83;;
9737;SDS011;4908;47.446;13.900;2023-11-21T03:06:18;2.70;;;2.60;;
9737;SDS011;4908;47.446;13.900;2023-11-21T03:08:45;3.00;;;2.80;;
9737;SDS011;4908;47.446;13.900;2023-11-21T03:11:13;3.30;;;2.83;;
9737;SDS011;4908;47.446;13.900;2023-11-21T03:13:41;3.20;;;3.00;;
9737;SDS011;4908;47.446;13.900;2023-11-21T03:16:10;3.40;;;3.10;;
9737;SDS011;4908;47.446;13.900;2023-11-21T03:18:37;3.33;;;3.13;;
9737;SDS011;4908;47.446;13.900;2023-11-21T03:21:05;3.23;;;3.07;;
9737;SDS011;4908;47.446;13.900;2023-11-21T03:23:34;2.83;;;2.73;;
9737;SDS011;4908;47.446;13.900;2023-11-21T03:26:01;3.03;;;2.83;;
9737;SDS011;4908;47.446;13.900;2023-11-21T03:28:28;3.30;;;2.80;;
9737;SDS011;4908;47.446;13.900;2023-11-21T03:30:56;3.03;;;2.83;;
9737;SDS011;4908;47.446;13.900;2023-11-21T03:33:25;3.00;;;2.80;;
9737;SDS011;4908;47.446;13.900;2023-11-21T03:35:52;3.63;;;2.80;;
9737;SDS011;4908;47.446;13.900;2023-11-21T03:38:19;3.17;;;2.87;;
9737;SDS011;4908;47.446;13.900;2023-11-21T03:40:46;3.53;;;3.20;;
9737;SDS011;4908;47.446;13.900;2023-11-21T03:43:14;4.90;;;3.20;;
9737;SDS011;4908;47.446;13.900;2023-11-21T03:45:41;3.37;;;3.03;;
9737;SDS011;4908;47.446;13.900;2023-11-21T03:48:09;3.53;;;3.23;;
9737;SDS011;4908;47.446;13.900;2023-11-21T03:50:40;3.40;;;3.20;;
9737;SDS011;4908;47.446;13.900;2023-11-21T03:53:07;3.07;;;2.83;;
9737;SDS011;4908;47.446;13.900;2023-11-21T03:55:34;2.50;;;2.40;;
9737;SDS011;4908;47.446;13.900;2023-11-21T03:58:01;2.40;;;2.23;;
9737;SDS011;4908;47.446;13.900;2023-11-21T04:00:28;4.37;;;4.03;;
9737;SDS011;4908;47.446;13.900;2023-11-21T04:02:55;3.13;;;2.93;;
9737;SDS011;4908;47.446;13.900;2023-11-21T04:05:22;3.50;;;3.20;;
9737;SDS011;4908;47.446;13.900;2023-11-21T04:07:51;3.20;;;2.90;;
9737;SDS011;4908;47.446;13.900;2023-11-21T04:10:18;2.10;;;2.00;;
9737;SDS011;4908;47.446;13.900;2023-11-21T04:12:46;2.53;;;2.30;;
9737;SDS011;4908;47.446;13.900;2023-11-21T04:15:13;2.27;;;2.17;;
9737;SDS011;4908;47.446;13.900;2023-11-21T04:17:41;2.77;;;2.57;;
9737;SDS011;4908;47.446;13.900;2023-11-21T04:20:08;3.40;;;3.20;;
9737;SDS011;4908;47.446;13.900;2023-11-21T04:22:36;3.40;;;2.17;;
9737;SDS011;4908;47.446;13.900;2023-11-21T04:25:08;2.10;;;2.00;;
9737;SDS011;4908;47.446;13.900;2023-11-21T04:27:36;2.73;;;2.53;;
9737;SDS011;4908;47.446;13.900;2023-11-21T04:30:06;5.10;;;2.23;;
9737;SDS011;4908;47.446;13.900;2023-11-21T04:32:35;2.77;;;2.57;;
9737;SDS011;4908;47.446;13.900;2023-11-21T04:35:02;3.87;;;2.30;;
9737;SDS011;4908;47.446;13.900;2023-11-21T04:37:30;2.30;;;2.20;;
9737;SDS011;4908;47.446;13.900;2023-11-21T04:39:57;2.10;;;2.00;;
9737;SDS011;4908;47.446;13.900;2023-11-21T04:42:25;2.50;;;2.00;;
9737;SDS011;4908;47.446;13.900;2023-11-21T04:44:54;3.10;;;2.40;;
9737;SDS011;4908;47.446;13.900;2023-11-21T04:47:21;3.13;;;1.73;;
9737;SDS011;4908;47.446;13.900;2023-11-21T04:49:49;2.13;;;2.03;;
9737;SDS011;4908;47.446;13.900;2023-11-21T04:52:16;2.40;;;2.10;;
9737;SDS011;4908;47.446;13.900;2023-11-21T04:54:43;3.43;;;3.10;;
9737;SDS011;4908;47.446;13.900;2023-11-21T04:57:10;4.83;;;3.70;;
9737;SDS011;4908;47.446;13.900;2023-11-21T04:59:39;4.30;;;3.90;;
9737;SDS011;4908;47.446;13.900;2023-11-21T05:02:06;4.03;;;3.63;;
9737;SDS011;4908;47.446;13.900;2023-11-21T05:04:33;3.73;;;3.17;;
9737;SDS011;4908;47.446;13.900;2023-11-21T05:07:01;3.60;;;3.23;;
9737;SDS011;4908;47.446;13.900;2023-11-21T05:09:28;4.00;;;3.70;;
9737;SDS011;4908;47.446;13.900;2023-11-21T05:11:57;3.63;;;3.17;;
9737;SDS011;4908;47.446;13.900;2023-11-21T05:14:25;4.20;;;3.90;;
9737;SDS011;4908;47.446;13.900;2023-11-21T05:16:54;3.60;;;3.40;;
9737;SDS011;4908;47.446;13.900;2023-11-21T05:19:21;4.00;;;3.70;;
9737;SDS011;4908;47.446;13.900;2023-11-21T05:21:48;5.33;;;4.70;;
9737;SDS011;4908;47.446;13.900;2023-11-21T05:24:16;5.30;;;4.87;;
9737;SDS011;4908;47.446;13.900;2023-11-21T05:26:43;4.67;;;4.27;;
9737;SDS011;4908;47.446;13.900;2023-11-21T05:29:10;3.90;;;3.60;;
9737;SDS011;4908;47.446;13.900;2023-11-21T05:31:37;4.07;;;3.33;;
9737;SDS011;4908;47.446;13.900;2023-11-21T05:34:05;3.00;;;2.80;;
9737;SDS011;4908;47.446;13.900;2023-11-21T05:36:32;8.40;;;7.50;;
9737;SDS011;4908;47.446;13.900;2023-11-21T05:38:59;11.70;;;10.60;;
9737;SDS011;4908;47.446;13.900;2023-11-21T05:41:28;13.83;;;12.43;;
9737;SDS011;4908;47.446;13.900;2023-11-21T05:43:55;5.30;;;4.90;;
9737;SDS011;4908;47.446;13.900;2023-11-21T05:46:22;5.47;;;4.97;;
9737;SDS011;4908;47.446;13.900;2023-11-21T05:48:49;10.07;;;9.03;;
9737;SDS011;4908;47.446;13.900;2023-11-21T05:51:17;7.80;;;5.40;;
9737;SDS011;4908;47.446;13.900;2023-11-21T05:53:45;7.07;;;5.33;;
9737;SDS011;4908;47.446;13.900;2023-11-21T05:56:12;4.00;;;3.70;;
9737;SDS011;4908;47.446;13.900;2023-11-21T05:58:39;3.73;;;3.43;;
9737;SDS011;4908;47.446;13.900;2023-11-21T06:01:06;4.07;;;3.67;;
9737;SDS011;4908;47.446;13.900;2023-11-21T06:03:34;6.87;;;4.83;;
9737;SDS011;4908;47.446;13.900;2023-11-21T06:06:01;5.63;;;5.10;;
9737;SDS011;4908;47.446;13.900;2023-11-21T06:08:30;7.70;;;5.60;;
9737;SDS011;4908;47.446;13.900;2023-11-21T06:10:57;6.13;;;5.20;;
9737;SDS011;4908;47.446;13.900;2023-11-21T06:13:24;5.93;;;5.17;;
9737;SDS011;4908;47.446;13.900;2023-11-21T06:15:51;5.17;;;4.70;;
9737;SDS011;4908;47.446;13.900;2023-11-21T06:18:19;4.53;;;4.13;;
9737;SDS011;4908;47.446;13.900;2023-11-21T06:20:46;4.33;;;4.00;;
9737;SDS011;4908;47.446;13.900;2023-11-21T06:23:13;5.60;;;4.93;;
9737;SDS011;4908;47.446;13.900;2023-11-21T06:25:43;4.60;;;4.30;;
9737;SDS011;4908;47.446;13.900;2023-11-21T06:28:10;7.60;;;5.60;;
9737;SDS011;4908;47.446;13.900;2023-11-21T06:30:37;10.53;;;9.47;;
9737;SDS011;4908;47.446;13.900;2023-11-21T06:33:04;8.10;;;7.40;;
9737;SDS011;4908;47.446;13.900;2023-11-21T06:35:31;8.67;;;7.93;;
9737;SDS011;4908;47.446;13.900;2023-11-21T06:38:00;9.97;;;8.80;;
9737;SDS011;4908;47.446;13.900;2023-11-21T06:40:28;8.97;;;8.20;;
9737;SDS011;4908;47.446;13.900;2023-11-21T06:42:56;8.70;;;7.90;;
9737;SDS011;4908;47.446;13.900;2023-11-21T06:45:24;11.47;;;10.00;;
9737;SDS011;4908;47.446;13.900;2023-11-21T06:47:51;6.93;;;5.30;;
9737;SDS011;4908;47.446;13.900;2023-11-21T06:50:18;6.23;;;5.57;;
9737;SDS011;4908;47.446;13.900;2023-11-21T06:52:45;6.00;;;5.40;;
9737;SDS011;4908;47.446;13.900;2023-11-21T06:55:12;6.20;;;5.60;;
9737;SDS011;4908;47.446;13.900;2023-11-21T06:57:39;8.73;;;6.83;;
9737;SDS011;4908;47.446;13.900;2023-11-21T07:00:08;15.23;;;13.73;;
9737;SDS011;4908;47.446;13.900;2023-11-21T07:02:36;29.03;;;26.53;;
9737;SDS011;4908;47.446;13.900;2023-11-21T07:05:04;9.47;;;8.63;;
9737;SDS011;4908;47.446;13.900;2023-11-21T07:07:31;9.80;;;8.53;;
9737;SDS011;4908;47.446;13.900;2023-11-21T07:10:00;6.63;;;5.97;;
9737;SDS011;4908;47.446;13.900;2023-11-21T07:12:28;9.37;;;6.63;;
9737;SDS011;4908;47.446;13.900;2023-11-21T07:14:56;7.60;;;5.90;;
9737;SDS011;4908;47.446;13.900;2023-11-21T07:17:24;6.73;;;5.87;;
9737;SDS011;4908;47.446;13.900;2023-11-21T07:19:51;13.93;;;10.30;;
9737;SDS011;4908;47.446;13.900;2023-11-21T07:22:20;11.37;;;8.93;;
9737;SDS011;4908;47.446;13.900;2023-11-21T07:24:48;6.50;;;5.90;;
9737;SDS011;4908;47.446;13.900;2023-11-21T07:27:16;7.30;;;6.50;;
9737;SDS011;4908;47.446;13.900;2023-11-21T07:29:43;5.40;;;4.90;;
9737;SDS011;4908;47.446;13.900;2023-11-21T07:32:11;4.47;;;3.50;;
9737;SDS011;4908;47.446;13.900;2023-11-21T07:34:39;4.83;;;4.27;;
9737;SDS011;4908;47.446;13.900;2023-11-21T07:37:07;6.50;;;5.90;;
9737;SDS011;4908;47.446;13.900;2023-11-21T07:39:35;8.03;;;6.20;;
9737;SDS011;4908;47.446;13.900;2023-11-21T07:42:02;7.43;;;6.20;;
9737;SDS011;4908;47.446;13.900;2023-11-21T07:44:30;7.87;;;6.20;;
9737;SDS011;4908;47.446;13.900;2023-11-21T07:46:57;5.60;;;5.13;;
9737;SDS011;4908;47.446;13.900;2023-11-21T07:49:24;6.27;;;5.67;;
9737;SDS011;4908;47.446;13.900;2023-11-21T07:51:53;4.23;;;3.87;;
9737;SDS011;4908;47.446;13.900;2023-11-21T07:54:20;4.37;;;3.50;;
9737;SDS011;4908;47.446;13.900;2023-11-21T07:56:47;5.93;;;5.53;;
9737;SDS011;4908;47.446;13.900;2023-11-21T07:59:14;6.07;;;5.57;;
9737;SDS011;4908;47.446;13.900;2023-11-21T08:01:43;8.10;;;5.33;;
9737;SDS011;4908;47.446;13.900;2023-11-21T08:04:11;6.83;;;5.07;;
9737;SDS011;4908;47.446;13.900;2023-11-21T08:06:38;6.00;;;4.57;;
9737;SDS011;4908;47.446;13.900;2023-11-21T08:09:08;4.80;;;4.30;;
9737;SDS011;4908;47.446;13.900;2023-11-21T08:11:37;4.47;;;4.17;;
9737;SDS011;4908;47.446;13.900;2023-11-21T08:14:05;4.67;;;3.70;;
9737;SDS011;4908;47.446;13.900;2023-11-21T08:16:32;6.30;;;5.40;;
9737;SDS011;4908;47.446;13.900;2023-11-21T08:18:59;7.07;;;5.83;;
9737;SDS011;4908;47.446;13.900;2023-11-21T08:21:26;7.73;;;5.43;;
9737;SDS011;4908;47.446;13.900;2023-11-21T08:23:54;7.23;;;5.77;;
9737;SDS011;4908;47.446;13.900;2023-11-21T08:26:22;7.07;;;6.00;;
9737;SDS011;4908;47.446;13.900;2023-11-21T08:28:49;7.03;;;6.33;;
9737;SDS011;4908;47.446;13.900;2023-11-21T08:31:22;6.53;;;5.70;;
9737;SDS011;4908;47.446;13.900;2023-11-21T08:33:50;8.27;;;6.80;;
9737;SDS011;4908;47.446;13.900;2023-11-21T08:36:18;9.27;;;6.67;;
9737;SDS011;4908;47.446;13.900;2023-11-21T08:38:46;6.37;;;5.40;;
9737;SDS011;4908;47.446;13.900;2023-11-21T08:41:14;5.93;;;4.90;;
9737;SDS011;4908;47.446;13.900;2023-11-21T08:43:42;5.90;;;4.83;;
9737;SDS011;4908;47.446;13.900;2023-11-21T08:46:10;5.50;;;4.60;;
9737;SDS011;4908;47.446;13.900;2023-11-21T08:48:37;5.70;;;5.20;;
9737;SDS011;4908;47.446;13.900;2023-11-21T08:51:04;6.43;;;5.30;;
9737;SDS011;4908;47.446;13.900;2023-11-21T08:53:32;5.77;;;4.67;;
9737;SDS011;4908;47.446;13.900;2023-11-21T08:55:59;4.80;;;4.33;;
9737;SDS011;4908;47.446;13.900;2023-11-21T08:58:26;4.80;;;4.10;;
9737;SDS011;4908;47.446;13.900;2023-11-21T09:00:54;6.80;;;4.87;;
9737;SDS011;4908;47.446;13.900;2023-11-21T09:03:21;4.87;;;4.47;;
9737;SDS011;4908;47.446;13.900;2023-11-21T09:05:48;4.77;;;4.30;;
9737;SDS011;4908;47.446;13.900;2023-11-21T09:08:15;5.13;;;3.70;;
9737;SDS011;4908;47.446;13.900;2023-11-21T09:10:42;4.00;;;2.97;;
9737;SDS011;4908;47.446;13.900;2023-11-21T09:13:12;2.40;;;2.20;;
9737;SDS011;4908;47.446;13.900;2023-11-21T09:15:42;2.50;;;2.40;;
9737;SDS011;4908;47.446;13.900;2023-11-21T09:18:12;3.17;;;2.87;;
9737;SDS011;4908;47.446;13.900;2023-11-21T09:20:40;3.53;;;3.23;;
9737;SDS011;4908;47.446;13.900;2023-11-21T09:23:07;3.67;;;3.37;;
9737;SDS011;4908;47.446;13.900;2023-11-21T09:25:34;4.73;;;4.43;;
9737;SDS011;4908;47.446;13.900;2023-11-21T09:28:02;3.57;;;3.27;;
9737;SDS011;4908;47.446;13.900;2023-11-21T09:30:33;3.50;;;3.20;;
9737;SDS011;4908;47.446;13.900;2023-11-21T09:33:00;3.10;;;2.80;;
9737;SDS011;4908;47.446;13.900;2023-11-21T09:35:28;4.33;;;3.20;;
9737;SDS011;4908;47.446;13.900;2023-11-21T09:37:55;3.23;;;2.97;;
9737;SDS011;4908;47.446;13.900;2023-11-21T09:40:22;5.13;;;3.63;;
9737;SDS011;4908;47.446;13.900;2023-11-21T09:42:52;4.13;;;3.33;;
9737;SDS011;4908;47.446;13.900;2023-11-21T09:45:24;3.70;;;3.37;;
9737;SDS011;4908;47.446;13.900;2023-11-21T09:47:52;6.10;;;4.30;;
9737;SDS011;4908;47.446;13.900;2023-11-21T09:50:20;4.77;;;4.37;;
9737;SDS011;4908;47.446;13.900;2023-11-21T09:52:52;5.70;;;4.23;;
9737;SDS011;4908;47.446;13.900;2023-11-21T09:55:26;4.23;;;3.87;;
9737;SDS011;4908;47.446;13.900;2023-11-21T09:57:54;6.07;;;4.40;;
9737;SDS011;4908;47.446;13.900;2023-11-21T10:00:22;7.93;;;5.93;;
9737;SDS011;4908;47.446;13.900;2023-11-21T10:02:50;7.27;;;5.27;;
9737;SDS011;4908;47.446;13.900;2023-11-21T10:05:18;4.67;;;4.27;;
9737;SDS011;4908;47.446;13.900;2023-11-21T10:07:47;7.63;;;4.53;;
9737;SDS011;4908;47.446;13.900;2023-11-21T10:10:17;4.73;;;4.33;;
9737;SDS011;4908;47.446;13.900;2023-11-21T10:12:48;5.87;;;3.83;;
9737;SDS011;4908;47.446;13.900;2023-11-21T10:15:18;3.40;;;3.10;;
9737;SDS011;4908;47.446;13.900;2023-11-21T10:17:50;3.50;;;3.20;;
9737;SDS011;4908;47.446;13.900;2023-11-21T10:20:18;3.10;;;2.80;;
9737;SDS011;4908;47.446;13.900;2023-11-21T10:22:46;5.20;;;4.40;;
9737;SDS011;4908;47.446;13.900;2023-11-21T10:25:13;4.20;;;3.80;;
9737;SDS011;4908;47.446;13.900;2023-11-21T10:27:42;3.60;;;3.30;;
9737;SDS011;4908;47.446;13.900;2023-11-21T10:30:09;3.30;;;3.10;;
9737;SDS011;4908;47.446;13.900;2023-11-21T10:32:37;6.43;;;4.07;;
9737;SDS011;4908;47.446;13.900;2023-11-21T10:35:06;5.43;;;3.80;;
9737;SDS011;4908;47.446;13.900;2023-11-21T10:37:35;3.53;;;3.23;;
9737;SDS011;4908;47.446;13.900;2023-11-21T10:40:05;4.30;;;3.67;;
9737;SDS011;4908;47.446;13.900;2023-11-21T10:42:37;5.40;;;3.50;;
9737;SDS011;4908;47.446;13.900;2023-11-21T10:45:06;6.23;;;3.90;;
9737;SDS011;4908;47.446;13.900;2023-11-21T10:47:38;4.33;;;3.93;;
9737;SDS011;4908;47.446;13.900;2023-11-21T10:50:07;3.60;;;3.37;;
9737;SDS011;4908;47.446;13.900;2023-11-21T10:52:36;3.50;;;3.20;;
9737;SDS011;4908;47.446;13.900;2023-11-21T10:55:12;3.00;;;2.80;;
9737;SDS011;4908;47.446;13.900;2023-11-21T10:57:44;4.03;;;2.50;;
9737;SDS011;4908;47.446;13.900;2023-11-21T11:00:16;3.10;;;2.80;;
9737;SDS011;4908;47.446;13.900;2023-11-21T11:02:46;2.67;;;2.17;;
9737;SDS011;4908;47.446;13.900;2023-11-21T11:05:16;2.40;;;2.20;;
9737;SDS011;4908;47.446;13.900;2023-11-21T11:07:46;2.33;;;2.13;;
9737;SDS011;4908;47.446;13.900;2023-11-21T11:10:17;3.60;;;2.23;;
9737;SDS011;4908;47.446;13.900;2023-11-21T11:12:46;4.00;;;2.00;;
9737;SDS011;4908;47.446;13.900;2023-11-21T11:15:14;2.20;;;2.10;;
9737;SDS011;4908;47.446;13.900;2023-11-21T11:17:43;2.70;;;2.37;;
9737;SDS011;4908;47.446;13.900;2023-11-21T11:20:12;3.17;;;2.47;;
9737;SDS011;4908;47.446;13.900;2023-11-21T11:22:44;3.53;;;2.60;;
9737;SDS011;4908;47.446;13.900;2023-11-21T11:25:25;2.80;;;2.30;;
9737;SDS011;4908;47.446;13.900;2023-11-21T11:28:03;2.70;;;2.13;;
9737;SDS011;4908;47.446;13.900;2023-11-21T11:30:41;4.43;;;2.43;;
9737;SDS011;4908;47.446;13.900;2023-11-21T11:33:20;2.00;;;1.90;;
9737;SDS011;4908;47.446;13.900;2023-11-21T11:35:56;2.93;;;2.37;;
9737;SDS011;4908;47.446;13.900;2023-11-21T11:38:31;2.33;;;2.10;;
9737;SDS011;4908;47.446;13.900;2023-11-21T11:41:01;2.40;;;2.20;;
9737;SDS011;4908;47.446;13.900;2023-11-21T11:43:29;2.23;;;1.83;;
9737;SDS011;4908;47.446;13.900;2023-11-21T11:45:59;3.43;;;2.20;;
9737;SDS011;4908;47.446;13.900;2023-11-21T11:48:29;3.73;;;2.83;;
9737;SDS011;4908;47.446;13.900;2023-11-21T11:51:03;3.03;;;2.43;;
9737;SDS011;4908;47.446;13.900;2023-11-21T11:53:37;2.80;;;2.10;;
9737;SDS011;4908;47.446;13.900;2023-11-21T11:56:22;2.00;;;1.87;;
9737;SDS011;4908;47.446;13.900;2023-11-21T11:58:52;2.23;;;2.13;;
9737;SDS011;4908;47.446;13.900;2023-11-21T12:01:21;2.63;;;2.43;;
9737;SDS011;4908;47.446;13.900;2023-11-21T12:06:57;2.20;;;2.00;;
9737;SDS011;4908;47.446;13.900;2023-11-21T12:09:28;2.10;;;1.90;;
9737;SDS011;4908;47.446;13.900;2023-11-21T12:11:56;3.80;;;2.20;;
9737;SDS011;4908;47.446;13.900;2023-11-21T12:14:23;2.00;;;1.90;;
9737;SDS011;4908;47.446;13.900;2023-11-21T12:16:52;2.17;;;1.97;;
9737;SDS011;4908;47.446;13.900;2023-11-21T12:19:19;3.67;;;2.10;;
9737;SDS011;4908;47.446;13.900;2023-11-21T12:21:48;2.40;;;2.20;;
9737;SDS011;4908;47.446;13.900;2023-11-21T12:24:16;2.67;;;2.47;;
9737;SDS011;4908;47.446;13.900;2023-11-21T12:26:43;3.03;;;2.40;;
9737;SDS011;4908;47.446;13.900;2023-11-21T12:29:10;2.53;;;2.00;;
9737;SDS011;4908;47.446;13.900;2023-11-21T12:31:38;1.90;;;1.80;;
9737;SDS011;4908;47.446;13.900;2023-11-21T12:34:07;2.17;;;1.60;;
9737;SDS011;4908;47.446;13.900;2023-11-21T12:36:37;1.70;;;1.40;;
9737;SDS011;4908;47.446;13.900;2023-11-21T12:39:04;1.50;;;1.40;;
9737;SDS011;4908;47.446;13.900;2023-11-21T12:41:34;1.57;;;1.30;;
9737;SDS011;4908;47.446;13.900;2023-11-21T12:44:01;1.50;;;1.33;;
9737;SDS011;4908;47.446;13.900;2023-11-21T12:46:28;2.10;;;1.30;;
9737;SDS011;4908;47.446;13.900;2023-11-21T12:48:58;20.63;;;13.17;;
9737;SDS011;4908;47.446;13.900;2023-11-21T12:51:26;4.47;;;3.20;;
9737;SDS011;4908;47.446;13.900;2023-11-21T12:53:54;4.87;;;3.43;;
9737;SDS011;4908;47.446;13.900;2023-11-21T12:56:23;2.20;;;2.00;;
9737;SDS011;4908;47.446;13.900;2023-11-21T12:58:53;1.83;;;1.73;;
9737;SDS011;4908;47.446;13.900;2023-11-21T13:01:25;3.20;;;1.80;;
9737;SDS011;4908;47.446;13.900;2023-11-21T13:03:53;2.53;;;1.80;;
9737;SDS011;4908;47.446;13.900;2023-11-21T13:06:20;2.73;;;1.87;;
9737;SDS011;4908;47.446;13.900;2023-11-21T13:08:51;1.30;;;1.20;;
9737;SDS011;4908;47.446;13.900;2023-11-21T13:11:19;2.13;;;1.60;;
9737;SDS011;4908;47.446;13.900;2023-11-21T13:13:46;2.60;;;1.60;;
9737;SDS011;4908;47.446;13.900;2023-11-21T13:16:14;2.20;;;1.60;;
9737;SDS011;4908;47.446;13.900;2023-11-21T13:18:41;1.70;;;1.60;;
9737;SDS011;4908;47.446;13.900;2023-11-21T13:21:09;3.20;;;2.07;;
9737;SDS011;4908;47.446;13.900;2023-11-21T13:23:38;4.73;;;2.17;;
9737;SDS011;4908;47.446;13.900;2023-11-21T13:26:08;2.37;;;1.90;;
9737;SDS011;4908;47.446;13.900;2023-11-21T13:28:35;2.13;;;1.90;;
9737;SDS011;4908;47.446;13.900;2023-11-21T13:31:03;2.10;;;1.90;;
9737;SDS011;4908;47.446;13.900;2023-11-21T13:33:46;2.77;;;1.90;;
9737;SDS011;4908;47.446;13.900;2023-11-21T13:36:16;2.20;;;2.00;;
9737;SDS011;4908;47.446;13.900;2023-11-21T13:38:47;2.30;;;2.17;;
9737;SDS011;4908;47.446;13.900;2023-11-21T13:41:17;1.93;;;1.83;;
9737;SDS011;4908;47.446;13.900;2023-11-21T13:43:44;2.13;;;1.80;;
9737;SDS011;4908;47.446;13.900;2023-11-21T13:46:24;1.47;;;1.37;;
9737;SDS011;4908;47.446;13.900;2023-11-21T13:48:51;2.80;;;1.90;;
9737;SDS011;4908;47.446;13.900;2023-11-21T13:51:21;2.10;;;1.93;;
9737;SDS011;4908;47.446;13.900;2023-11-21T13:53:56;2.80;;;2.40;;
9737;SDS011;4908;47.446;13.900;2023-11-21T13:56:25;2.57;;;2.40;;
9737;SDS011;4908;47.446;13.900;2023-11-21T13:58:54;2.33;;;2.10;;
9737;SDS011;4908;47.446;13.900;2023-11-21T14:01:22;1.80;;;1.70;;
9737;SDS011;4908;47.446;13.900;2023-11-21T14:04:12;3.57;;;2.23;;
9737;SDS011;4908;47.446;13.900;2023-11-21T14:06:45;3.37;;;2.57;;
9737;SDS011;4908;47.446;13.900;2023-11-21T14:09:14;2.40;;;2.20;;
9737;SDS011;4908;47.446;13.900;2023-11-21T14:11:50;2.77;;;2.23;;
9737;SDS011;4908;47.446;13.900;2023-11-21T14:14:18;3.00;;;2.73;;
9737;SDS011;4908;47.446;13.900;2023-11-21T14:16:45;2.90;;;2.70;;
9737;SDS011;4908;47.446;13.900;2023-11-21T14:19:12;15.63;;;9.50;;
9737;SDS011;4908;47.446;13.900;2023-11-21T14:21:43;17.00;;;12.70;;
9737;SDS011;4908;47.446;13.900;2023-11-21T14:24:10;11.50;;;8.83;;
9737;SDS011;4908;47.446;13.900;2023-11-21T14:26:40;5.53;;;4.40;;
9737;SDS011;4908;47.446;13.900;2023-11-21T14:29:09;3.00;;;2.07;;
9737;SDS011;4908;47.446;13.900;2023-11-21T14:31:39;1.60;;;1.50;;
9737;SDS011;4908;47.446;13.900;2023-11-21T14:34:07;2.80;;;1.77;;
9737;SDS011;4908;47.446;13.900;2023-11-21T14:36:34;2.33;;;2.00;;
9737;SDS011;4908;47.446;13.900;2023-11-21T14:39:02;2.70;;;2.50;;
9737;SDS011;4908;47.446;13.900;2023-11-21T14:41:32;2.60;;;2.00;;
9737;SDS011;4908;47.446;13.900;2023-11-21T14:44:01;5.70;;;2.70;;
9737;SDS011;4908;47.446;13.900;2023-11-21T14:46:30;3.93;;;2.60;;
9737;SDS011;4908;47.446;13.900;2023-11-21T14:49:00;8.63;;;3.17;;
9737;SDS011;4908;47.446;13.900;2023-11-21T14:51:44;2.40;;;2.30;;
9737;SDS011;4908;47.446;13.900;2023-11-21T14:54:25;5.50;;;5.00;;
9737;SDS011;4908;47.446;13.900;2023-11-21T14:57:05;6.43;;;5.07;;
9737;SDS011;4908;47.446;13.900;2023-11-21T14:59:36;4.83;;;3.50;;
9737;SDS011;4908;47.446;13.900;2023-11-21T15:02:05;4.77;;;3.77;;
9737;SDS011;4908;47.446;13.900;2023-11-21T15:04:41;4.97;;;2.70;;
9737;SDS011;4908;47.446;13.900;2023-11-21T15:07:08;2.40;;;2.20;;
9737;SDS011;4908;47.446;13.900;2023-11-21T15:09:37;3.73;;;3.07;;
9737;SDS011;4908;47.446;13.900;2023-11-21T15:12:07;3.23;;;2.83;;
9737;SDS011;4908;47.446;13.900;2023-11-21T15:14:41;4.73;;;3.27;;